Pagrindinis puslapis
METAR-TAF:

METAR-TAF

Oro uostai :

Čita, Rusija

platuma: 52-05N, ilguma: 113-29E, Aukštis: 685 m

Dabartinis oras

Ataskaita buvo paskelbta 40 minutes, ne 23:00 UTC
Vėjas 2 kt iš Vakarų
Temperatūra 5°C
Drėgmė 87%
Slėgis 1021 hPa
Matomumas 10 km arba daugiau

METAR: UIAA 192300Z 27001MPS 9999 NSC 05/03 Q1021 R29/CLRD70 NOSIG RMK QFE707/0943

Laikas: 08:40 (23:40 UTC)

Prognozė

Ataskaita buvo paskelbta 40 minutes, ne 23:00 UTC
Prognozė galioja nuo 20 metu 00 UTC su 20 metu 24 UTC
Vėjas 6 kt iš Vakarų su gūsio iki 16 kt
Matomumas 10 km arba daugiau
Išsisklaidę debesys ne aukštis 4000 ft, Liūtiniai kamuoliniai debesys.

TAF: UIAA 192300Z 2000/2024 26003G08MPS 9999 SCT040CB

Orai ataskaitas ir orų prognozės (METAR, TAF).

turimą stotys yra geltonos ir raudonos taškus žemėlapyje.

Perkelti pele per norėdami pamatyti stoties vardą.

Tada spustelėkite, norėdami matyti oro stebėjimo ir prognozės.

Norėdami pakeisti žemėlapį: spustelėkite ant žalios mygtukų su juodo kryžiaus žemyn,; žalią mygtuką su brūkšneliu, jei norite nutolinti; arba žalių rodyklių gretimoms žemėlapius.


METAR-TAF: